createdAt,value
2019-06-08T00:00:40.259Z,4.20
2019-06-08T00:03:08.471Z,4.92
2019-06-08T00:05:36.718Z,4.70
2019-06-08T00:08:05.081Z,4.10
2019-06-08T00:10:33.297Z,3.98
2019-06-08T00:13:01.527Z,3.98
2019-06-08T00:15:29.721Z,4.53
2019-06-08T00:17:59.441Z,3.47
2019-06-08T00:20:27.728Z,4.05
2019-06-08T00:22:55.968Z,3.72
2019-06-08T00:25:24.305Z,4.37
2019-06-08T00:27:52.468Z,4.17
2019-06-08T00:30:20.841Z,4.10
2019-06-08T00:32:49.052Z,3.98
2019-06-08T00:35:18.569Z,4.53
2019-06-08T00:37:46.849Z,4.08
2019-06-08T00:40:15.065Z,4.55
2019-06-08T00:42:43.278Z,3.85
2019-06-08T00:45:11.534Z,3.62
2019-06-08T00:47:47.380Z,3.72
2019-06-08T00:50:09.705Z,3.97
2019-06-08T00:52:37.918Z,3.90
2019-06-08T00:55:06.315Z,4.47
2019-06-08T00:57:34.535Z,3.50
2019-06-08T01:00:10.247Z,3.25
2019-06-08T01:02:34.714Z,2.87
2019-06-08T01:05:02.941Z,2.98
2019-06-08T01:07:31.302Z,2.83
2019-06-08T01:09:59.513Z,2.50
2019-06-08T01:12:28.991Z,2.70
2019-06-08T01:14:57.325Z,2.58
2019-06-08T01:17:25.541Z,2.70
2019-06-08T01:19:53.745Z,2.42
2019-06-08T01:22:23.609Z,2.33
2019-06-08T01:24:51.941Z,2.20
2019-06-08T01:27:20.185Z,2.37
2019-06-08T01:29:48.437Z,2.20
2019-06-08T01:32:16.636Z,2.00
2019-06-08T01:34:44.841Z,1.72
2019-06-08T01:37:13.059Z,2.47
2019-06-08T01:39:41.285Z,2.10
2019-06-08T01:42:09.515Z,2.20
2019-06-08T01:44:37.733Z,2.20
2019-06-08T01:47:05.930Z,2.20
2019-06-08T01:49:34.160Z,2.58
2019-06-08T01:52:02.463Z,2.00
2019-06-08T01:54:31.554Z,2.30
2019-06-08T01:56:59.879Z,1.90
2019-06-08T01:59:29.508Z,2.00
2019-06-08T02:01:57.880Z,2.02
2019-06-08T02:04:26.105Z,1.92
2019-06-08T02:06:54.314Z,1.90
2019-06-08T02:09:22.524Z,2.20
2019-06-08T02:11:50.742Z,2.12
2019-06-08T02:14:19.008Z,2.10
2019-06-08T02:16:47.226Z,2.20
2019-06-08T02:19:15.523Z,1.75
2019-06-08T02:21:43.720Z,2.15
2019-06-08T02:24:11.968Z,1.80
2019-06-08T02:26:40.229Z,1.90
2019-06-08T02:29:08.465Z,2.10
2019-06-08T02:31:37.723Z,1.85
2019-06-08T02:34:06.205Z,1.90
2019-06-08T02:36:35.914Z,2.00
2019-06-08T02:39:06.347Z,1.80
2019-06-08T02:41:35.312Z,1.72
2019-06-08T02:44:03.575Z,1.60
2019-06-08T02:46:33.356Z,1.75
2019-06-08T02:49:04.438Z,1.97
2019-06-08T02:51:33.825Z,1.60
2019-06-08T02:54:02.193Z,1.75
2019-06-08T02:56:31.908Z,2.05
2019-06-08T02:59:00.285Z,1.65
2019-06-08T03:01:29.534Z,1.70
2019-06-08T03:03:57.678Z,2.10
2019-06-08T03:06:25.887Z,1.80
2019-06-08T03:08:54.123Z,1.80
2019-06-08T03:11:22.353Z,1.57
2019-06-08T03:13:50.564Z,1.57
2019-06-08T03:16:18.779Z,1.50
2019-06-08T03:18:46.984Z,1.22
2019-06-08T03:21:15.228Z,1.50
2019-06-08T03:23:43.653Z,1.75
2019-06-08T03:26:11.870Z,1.60
2019-06-08T03:28:42.186Z,1.42
2019-06-08T03:31:10.132Z,1.50
2019-06-08T03:33:46.241Z,1.70
2019-06-08T03:36:08.274Z,1.30
2019-06-08T03:38:37.649Z,1.35
2019-06-08T03:41:06.106Z,1.70
2019-06-08T03:43:35.333Z,1.30
2019-06-08T03:46:04.098Z,1.62
2019-06-08T03:48:32.305Z,1.52
2019-06-08T03:51:00.600Z,1.80
2019-06-08T03:53:28.748Z,1.30
2019-06-08T03:55:56.966Z,1.60
2019-06-08T03:58:25.172Z,1.50
2019-06-08T04:00:53.405Z,1.30
2019-06-08T04:03:21.614Z,1.50
2019-06-08T04:05:50.128Z,1.27
2019-06-08T04:08:18.429Z,1.32
2019-06-08T04:10:46.999Z,1.40
2019-06-08T04:13:15.246Z,1.30
2019-06-08T04:15:44.672Z,1.30
2019-06-08T04:18:13.415Z,2.20
2019-06-08T04:20:43.594Z,2.00
2019-06-08T04:23:11.560Z,1.60
2019-06-08T04:25:40.567Z,1.20
2019-06-08T04:28:09.954Z,1.67
2019-06-08T04:30:38.674Z,1.70
2019-06-08T04:33:07.038Z,1.60
2019-06-08T04:35:35.268Z,1.40
2019-06-08T04:38:03.519Z,1.30
2019-06-08T04:40:31.721Z,1.20
2019-06-08T04:42:59.967Z,1.10
2019-06-08T04:45:28.320Z,1.30
2019-06-08T04:47:56.584Z,1.30
2019-06-08T04:50:24.836Z,1.15
2019-06-08T04:52:53.037Z,1.37
2019-06-08T04:55:21.244Z,1.20
2019-06-08T04:57:50.849Z,1.22
2019-06-08T05:00:19.247Z,0.88
2019-06-08T05:02:49.317Z,1.00
2019-06-08T05:05:17.489Z,0.90
2019-06-08T05:07:46.432Z,1.32
2019-06-08T05:10:15.637Z,0.90
2019-06-08T05:12:45.439Z,0.93
2019-06-08T05:15:13.841Z,1.10
2019-06-08T05:17:43.230Z,0.93
2019-06-08T05:20:11.542Z,0.63
2019-06-08T05:22:41.309Z,1.00
2019-06-08T05:25:09.656Z,0.60
2019-06-08T05:27:39.267Z,0.72
2019-06-08T05:30:08.746Z,0.80
2019-06-08T05:32:37.245Z,0.90
2019-06-08T05:35:06.290Z,0.95
2019-06-08T05:37:34.499Z,0.78
2019-06-08T05:40:02.698Z,0.80
2019-06-08T05:42:30.921Z,0.80
2019-06-08T05:44:59.132Z,0.90
2019-06-08T05:47:27.333Z,1.00
2019-06-08T05:49:55.573Z,1.00
2019-06-08T05:52:23.766Z,1.00
2019-06-08T05:54:51.977Z,1.10
2019-06-08T05:57:20.193Z,1.05
2019-06-08T05:59:48.424Z,1.12
2019-06-08T06:02:16.612Z,1.27
2019-06-08T06:04:44.823Z,1.10
2019-06-08T06:07:13.030Z,1.60
2019-06-08T06:09:42.748Z,1.42
2019-06-08T06:12:11.165Z,2.00
2019-06-08T06:14:40.657Z,1.40
2019-06-08T06:17:08.928Z,1.23
2019-06-08T06:19:37.137Z,1.47
2019-06-08T06:22:05.647Z,1.60
2019-06-08T06:24:33.816Z,1.35
2019-06-08T06:27:02.018Z,1.20
2019-06-08T06:29:30.262Z,1.55
2019-06-08T06:31:58.464Z,1.47
2019-06-08T06:34:26.668Z,1.40
2019-06-08T06:36:57.351Z,0.78
2019-06-08T06:39:24.990Z,1.00
2019-06-08T06:41:53.623Z,1.20
2019-06-08T06:44:22.079Z,1.20
2019-06-08T06:46:50.276Z,1.10
2019-06-08T06:49:18.491Z,1.30
2019-06-08T06:51:46.728Z,1.60
2019-06-08T06:54:14.954Z,1.10
2019-06-08T06:56:43.183Z,1.52
2019-06-08T06:59:11.661Z,1.00
2019-06-08T07:01:39.869Z,1.20
2019-06-08T07:04:08.352Z,1.10
2019-06-08T07:06:36.567Z,1.20
2019-06-08T07:09:06.352Z,1.00
2019-06-08T07:11:35.004Z,1.40
2019-06-08T07:14:04.021Z,1.10
2019-06-08T07:16:32.243Z,1.05
2019-06-08T07:19:00.481Z,1.22
2019-06-08T07:21:41.001Z,1.40
2019-06-08T07:23:58.834Z,1.25
2019-06-08T07:26:27.183Z,0.90
2019-06-08T07:28:55.631Z,1.47
2019-06-08T07:31:23.914Z,0.72
2019-06-08T07:33:53.511Z,1.20
2019-06-08T07:36:21.853Z,1.20
2019-06-08T07:38:51.313Z,1.40
2019-06-08T07:41:19.577Z,1.15
2019-06-08T07:43:48.009Z,1.25
2019-06-08T07:46:17.302Z,1.42
2019-06-08T07:48:45.734Z,1.12
2019-06-08T07:51:13.936Z,1.05
2019-06-08T07:53:42.148Z,1.00
2019-06-08T07:56:10.361Z,1.30
2019-06-08T07:58:38.588Z,1.07
2019-06-08T08:01:08.338Z,1.00
2019-06-08T08:03:36.690Z,2.02
2019-06-08T08:06:04.906Z,1.27
2019-06-08T08:08:33.127Z,1.50
2019-06-08T08:11:01.672Z,1.30
2019-06-08T08:13:29.931Z,1.35
2019-06-08T08:15:59.370Z,1.37
2019-06-08T08:18:28.095Z,1.07
2019-06-08T08:20:59.181Z,1.45
2019-06-08T08:23:27.415Z,1.10
2019-06-08T08:25:58.649Z,1.10
2019-06-08T08:28:27.892Z,1.72
2019-06-08T08:30:58.600Z,1.23
2019-06-08T08:33:27.681Z,1.20
2019-06-08T08:35:58.612Z,1.00
2019-06-08T08:38:27.267Z,1.32
2019-06-08T08:40:59.806Z,1.15
2019-06-08T08:43:27.841Z,1.40
2019-06-08T08:45:56.728Z,1.60
2019-06-08T08:48:29.359Z,1.32
2019-06-08T08:50:56.946Z,1.10
2019-06-08T08:53:27.874Z,1.20
2019-06-08T08:55:57.911Z,1.30
2019-06-08T08:58:25.397Z,1.20
2019-06-08T09:00:54.216Z,1.57
2019-06-08T09:03:29.769Z,1.10
2019-06-08T09:05:54.683Z,1.30
2019-06-08T09:08:23.573Z,1.30
2019-06-08T09:10:53.289Z,1.50
2019-06-08T09:13:21.599Z,1.10
2019-06-08T09:15:52.284Z,1.20
2019-06-08T09:18:19.763Z,1.30
2019-06-08T09:20:48.029Z,1.50
2019-06-08T09:23:21.437Z,1.63
2019-06-08T09:25:48.301Z,1.30
2019-06-08T09:28:18.655Z,1.52
2019-06-08T09:30:48.425Z,1.30
2019-06-08T09:33:18.593Z,1.15
2019-06-08T09:35:47.929Z,1.32
2019-06-08T09:38:18.610Z,1.30
2019-06-08T09:40:48.747Z,1.50
2019-06-08T09:43:18.703Z,1.40
2019-06-08T09:45:48.305Z,1.27
2019-06-08T09:48:18.204Z,1.12
2019-06-08T09:50:48.503Z,1.22
2019-06-08T09:53:26.969Z,1.47
2019-06-08T09:55:48.106Z,1.17
2019-06-08T09:58:18.122Z,1.27
2019-06-08T10:00:48.376Z,1.10
2019-06-08T10:03:18.406Z,1.20
2019-06-08T10:05:48.258Z,1.20
2019-06-08T10:08:20.334Z,1.27
2019-06-08T10:10:48.227Z,1.20
2019-06-08T10:13:18.712Z,1.70
2019-06-08T10:15:48.659Z,1.20
2019-06-08T10:18:17.645Z,1.20
2019-06-08T10:20:48.024Z,1.20
2019-06-08T10:23:30.259Z,1.02
2019-06-08T10:25:47.984Z,1.10
2019-06-08T10:28:20.890Z,1.20
2019-06-08T10:30:48.285Z,1.10
2019-06-08T10:33:15.387Z,0.95
2019-06-08T10:35:43.612Z,1.20
2019-06-08T10:38:12.176Z,1.50
2019-06-08T10:41:00.332Z,1.27
2019-06-08T10:43:28.886Z,1.37
2019-06-08T10:46:00.590Z,1.30
2019-06-08T10:48:28.564Z,1.30
2019-06-08T10:50:58.535Z,0.95
2019-06-08T10:53:28.599Z,0.90
2019-06-08T10:55:58.209Z,1.62
2019-06-08T10:58:28.358Z,1.30
2019-06-08T11:00:59.690Z,1.10
2019-06-08T11:03:30.374Z,1.40
2019-06-08T11:06:00.469Z,1.10
2019-06-08T11:08:27.520Z,1.32
2019-06-08T11:10:57.909Z,0.98
2019-06-08T11:13:28.126Z,1.00
2019-06-08T11:15:58.694Z,1.12
2019-06-08T11:18:28.515Z,1.20
2019-06-08T11:20:57.991Z,1.33
2019-06-08T11:23:25.697Z,1.22
2019-06-08T11:25:53.886Z,1.25
2019-06-08T11:28:22.119Z,1.10
2019-06-08T11:30:50.312Z,1.50
2019-06-08T11:33:18.564Z,1.17
2019-06-08T11:35:46.792Z,1.25
2019-06-08T11:38:17.580Z,1.50
2019-06-08T11:40:44.957Z,1.62
2019-06-08T11:43:13.171Z,1.77
2019-06-08T11:45:41.372Z,2.30
2019-06-08T11:48:10.855Z,1.95
2019-06-08T11:50:42.176Z,1.47
2019-06-08T11:53:14.201Z,1.63
2019-06-08T11:55:40.492Z,1.50
2019-06-08T11:58:11.869Z,1.52
2019-06-08T12:00:53.813Z,1.98
2019-06-08T12:05:50.892Z,1.70
2019-06-08T12:08:20.904Z,1.40
2019-06-08T12:10:49.342Z,2.58
2019-06-08T12:13:17.918Z,1.50
2019-06-08T12:15:48.822Z,1.40
2019-06-08T12:18:18.178Z,2.08
2019-06-08T12:20:48.693Z,1.65
2019-06-08T12:23:16.469Z,1.30
2019-06-08T12:25:44.690Z,1.17
2019-06-08T12:28:12.902Z,1.52
2019-06-08T12:30:41.165Z,1.32
2019-06-08T12:33:10.882Z,1.30
2019-06-08T12:35:39.359Z,1.50
2019-06-08T12:38:09.656Z,1.20
2019-06-08T12:40:40.887Z,1.40
2019-06-08T12:43:09.978Z,1.20
2019-06-08T12:45:38.110Z,1.40
2019-06-08T12:48:08.847Z,1.22
2019-06-08T12:50:38.635Z,1.50
2019-06-08T12:53:12.439Z,1.30
2019-06-08T12:55:37.738Z,1.62
2019-06-08T12:58:08.114Z,1.67
2019-06-08T13:00:38.075Z,1.32
2019-06-08T13:03:08.203Z,1.40
2019-06-08T13:05:37.945Z,1.00
2019-06-08T13:08:08.415Z,1.85
2019-06-08T13:10:38.205Z,1.60
2019-06-08T13:13:08.050Z,1.50
2019-06-08T13:15:38.278Z,1.30
2019-06-08T13:18:05.681Z,1.63
2019-06-08T13:20:33.954Z,2.37
2019-06-08T13:23:02.180Z,1.22
2019-06-08T13:25:39.555Z,1.90
2019-06-08T13:28:00.346Z,1.65
2019-06-08T13:30:31.992Z,1.65
2019-06-08T13:32:58.722Z,1.60
2019-06-08T13:35:27.406Z,1.20
2019-06-08T13:37:57.690Z,1.50
2019-06-08T13:40:25.901Z,1.60
2019-06-08T13:42:54.147Z,1.60
2019-06-08T13:45:23.531Z,1.90
2019-06-08T13:47:51.815Z,1.40
2019-06-08T13:50:22.048Z,1.60
2019-06-08T13:52:50.213Z,1.82
2019-06-08T13:55:36.639Z,2.05
2019-06-08T13:57:49.146Z,1.72
2019-06-08T14:00:18.291Z,1.47
2019-06-08T14:02:48.360Z,1.30
2019-06-08T14:05:24.051Z,1.60
2019-06-08T14:07:49.953Z,1.10
2019-06-08T14:10:22.925Z,1.75
2019-06-08T14:12:51.420Z,2.12
2019-06-08T14:15:19.766Z,1.70
2019-06-08T14:17:47.980Z,1.60
2019-06-08T14:20:21.746Z,1.80
2019-06-08T14:22:50.541Z,1.47
2019-06-08T14:25:21.696Z,1.75
2019-06-08T14:27:48.793Z,1.70
2019-06-08T14:30:18.253Z,1.50
2019-06-08T14:32:47.863Z,1.60
2019-06-08T14:35:18.694Z,2.60
2019-06-08T14:37:48.130Z,1.90
2019-06-08T14:40:17.226Z,1.67
2019-06-08T14:42:45.513Z,1.60
2019-06-08T14:45:13.722Z,1.50
2019-06-08T14:47:41.935Z,1.67
2019-06-08T14:50:10.141Z,1.57
2019-06-08T14:52:38.369Z,1.50
2019-06-08T14:55:08.026Z,1.35
2019-06-08T14:57:37.469Z,1.45
2019-06-08T15:00:10.625Z,1.90
2019-06-08T15:02:37.931Z,1.60
2019-06-08T15:05:07.825Z,1.52
2019-06-08T15:07:38.677Z,1.90
2019-06-08T15:10:09.831Z,1.50
2019-06-08T15:12:38.401Z,1.90
2019-06-08T15:15:10.753Z,1.63
2019-06-08T15:17:37.972Z,1.55
2019-06-08T15:20:09.293Z,1.65
2019-06-08T15:22:38.849Z,1.47
2019-06-08T15:25:08.181Z,1.25
2019-06-08T15:27:38.904Z,1.10
2019-06-08T15:30:07.216Z,1.65
2019-06-08T15:32:38.453Z,1.50
2019-06-08T15:35:08.070Z,1.47
2019-06-08T15:37:40.482Z,1.60
2019-06-08T15:40:07.709Z,1.52
2019-06-08T15:42:36.012Z,1.50
2019-06-08T15:45:08.099Z,1.47
2019-06-08T15:47:35.508Z,1.70
2019-06-08T15:50:05.177Z,1.60
2019-06-08T15:52:34.328Z,1.47
2019-06-08T15:55:02.575Z,2.00
2019-06-08T15:57:35.713Z,2.00
2019-06-08T16:00:00.754Z,1.60
2019-06-08T16:02:29.459Z,1.90
2019-06-08T16:04:57.712Z,2.15
2019-06-08T16:07:28.525Z,1.80
2019-06-08T16:09:55.906Z,2.08
2019-06-08T16:12:24.313Z,1.72
2019-06-08T16:14:52.590Z,1.65
2019-06-08T16:17:22.722Z,1.80
2019-06-08T16:19:53.092Z,1.75
2019-06-08T16:22:20.998Z,2.00
2019-06-08T16:24:49.214Z,1.70
2019-06-08T16:27:17.425Z,2.02
2019-06-08T16:29:45.808Z,2.22
2019-06-08T16:32:14.036Z,1.73
2019-06-08T16:34:42.291Z,1.50
2019-06-08T16:37:10.500Z,1.98
2019-06-08T16:39:39.094Z,1.60
2019-06-08T16:42:07.302Z,2.05
2019-06-08T16:44:36.423Z,1.40
2019-06-08T16:47:04.724Z,2.05
2019-06-08T16:49:33.384Z,1.67
2019-06-08T16:52:01.638Z,1.65
2019-06-08T16:54:30.606Z,1.77
2019-06-08T16:57:09.480Z,2.75
2019-06-08T16:59:30.155Z,2.52
2019-06-08T17:01:58.416Z,2.55
2019-06-08T17:04:26.623Z,2.30
2019-06-08T17:06:54.841Z,2.25
2019-06-08T17:09:23.058Z,2.15
2019-06-08T17:14:38.379Z,3.58
2019-06-08T17:17:06.959Z,2.13
2019-06-08T17:19:36.250Z,2.10
2019-06-08T17:22:04.500Z,1.85
2019-06-08T17:24:32.720Z,2.00
2019-06-08T17:27:01.139Z,1.60
2019-06-08T17:29:30.639Z,1.90
2019-06-08T17:31:58.934Z,1.80
2019-06-08T17:34:27.143Z,1.70
2019-06-08T17:36:55.406Z,1.72
2019-06-08T17:39:23.613Z,1.80
2019-06-08T17:41:51.835Z,1.80
2019-06-08T17:44:20.034Z,2.13
2019-06-08T17:46:48.275Z,2.00
2019-06-08T17:49:16.480Z,2.00
2019-06-08T17:51:44.692Z,2.62
2019-06-08T17:54:12.928Z,1.70
2019-06-08T17:56:41.304Z,1.30
2019-06-08T17:59:09.624Z,1.75
2019-06-08T18:01:37.861Z,1.62
2019-06-08T18:04:08.060Z,2.17
2019-06-08T18:06:38.654Z,1.77
2019-06-08T18:09:07.895Z,1.40
2019-06-08T18:11:38.679Z,1.75
2019-06-08T18:14:07.430Z,1.60
2019-06-08T18:16:39.211Z,1.47
2019-06-08T18:19:07.934Z,1.90
2019-06-08T18:21:38.830Z,2.72
2019-06-08T18:24:07.679Z,3.30
2019-06-08T18:26:38.393Z,3.95
2019-06-08T18:29:07.796Z,3.50
2019-06-08T18:31:35.441Z,3.10
2019-06-08T18:34:05.437Z,2.80
2019-06-08T18:36:34.829Z,2.95
2019-06-08T18:39:04.536Z,2.30
2019-06-08T18:41:32.752Z,3.03
2019-06-08T18:44:01.830Z,2.96
2019-06-08T18:46:30.057Z,3.17
2019-06-08T18:48:58.333Z,2.90
2019-06-08T18:51:28.102Z,2.67
2019-06-08T18:54:10.443Z,3.40
2019-06-08T18:56:27.564Z,4.55
2019-06-08T18:58:58.174Z,3.37
2019-06-08T19:01:27.518Z,2.62
2019-06-08T19:03:57.946Z,3.40
2019-06-08T19:06:27.890Z,2.72
2019-06-08T19:08:57.892Z,3.80
2019-06-08T19:11:28.453Z,3.22
2019-06-08T19:13:57.906Z,3.95
2019-06-08T19:16:27.762Z,4.12
2019-06-08T19:18:57.955Z,3.50
2019-06-08T19:21:27.801Z,3.40
2019-06-08T19:23:55.405Z,2.72
2019-06-08T19:26:23.615Z,2.67
2019-06-08T19:28:53.899Z,2.08
2019-06-08T19:31:21.785Z,2.30
2019-06-08T19:33:53.497Z,2.27
2019-06-08T19:36:19.929Z,2.00
2019-06-08T19:38:54.439Z,2.10
2019-06-08T19:41:18.116Z,2.27
2019-06-08T19:43:53.235Z,2.20
2019-06-08T19:46:18.066Z,2.17
2019-06-08T19:48:53.289Z,1.98
2019-06-08T19:51:17.088Z,2.80
2019-06-08T19:53:49.267Z,2.30
2019-06-08T19:56:17.367Z,2.33
2019-06-08T19:58:58.437Z,2.00
2019-06-08T20:01:17.490Z,2.40
2019-06-08T20:03:45.217Z,2.75
2019-06-08T20:06:14.387Z,2.30
2019-06-08T20:08:43.015Z,2.40
2019-06-08T20:11:11.216Z,2.10
2019-06-08T20:13:39.426Z,2.00
2019-06-08T20:16:08.478Z,2.60
2019-06-08T20:18:37.569Z,2.20
2019-06-08T20:21:10.001Z,2.10
2019-06-08T20:23:38.060Z,3.60
2019-06-08T20:26:08.176Z,2.40
2019-06-08T20:28:37.280Z,2.33
2019-06-08T20:31:07.481Z,2.08
2019-06-08T20:33:37.688Z,1.72
2019-06-08T20:36:08.063Z,1.82
2019-06-08T20:38:39.750Z,1.90
2019-06-08T20:41:07.474Z,1.95
2019-06-08T20:43:38.097Z,1.82
2019-06-08T20:46:05.172Z,1.70
2019-06-08T20:48:33.432Z,1.98
2019-06-08T20:51:01.701Z,1.87
2019-06-08T20:53:29.898Z,1.75
2019-06-08T20:55:58.107Z,2.12
2019-06-08T20:58:28.292Z,2.40
2019-06-08T21:00:57.733Z,1.85
2019-06-08T21:03:27.978Z,2.02
2019-06-08T21:05:58.035Z,1.80
2019-06-08T21:08:28.031Z,2.22
2019-06-08T21:10:58.072Z,1.80
2019-06-08T21:13:27.475Z,2.12
2019-06-08T21:15:58.031Z,2.00
2019-06-08T21:18:27.613Z,2.00
2019-06-08T21:20:57.854Z,2.00
2019-06-08T21:23:27.673Z,2.00
2019-06-08T21:25:59.825Z,2.27
2019-06-08T21:28:27.815Z,2.40
2019-06-08T21:30:58.696Z,1.80
2019-06-08T21:33:25.211Z,2.10
2019-06-08T21:36:00.463Z,1.90
2019-06-08T21:38:24.541Z,1.90
2019-06-08T21:40:55.678Z,1.90
2019-06-08T21:43:22.727Z,2.02
2019-06-08T21:45:51.937Z,1.70
2019-06-08T21:48:20.873Z,1.72
2019-06-08T21:50:51.671Z,1.70
2019-06-08T21:53:19.051Z,1.67
2019-06-08T21:55:47.915Z,1.90
2019-06-08T21:58:17.820Z,1.50
2019-06-08T22:00:47.279Z,1.65
2019-06-08T22:03:17.576Z,1.70
2019-06-08T22:05:47.325Z,1.80
2019-06-08T22:08:17.333Z,1.67
2019-06-08T22:10:47.144Z,1.60
2019-06-08T22:13:17.556Z,1.80
2019-06-08T22:15:47.459Z,1.72
2019-06-08T22:18:18.297Z,1.70
2019-06-08T22:20:47.729Z,1.35
2019-06-08T22:23:17.883Z,1.70
2019-06-08T22:25:47.618Z,1.40
2019-06-08T22:28:17.566Z,1.67
2019-06-08T22:30:45.433Z,1.42
2019-06-08T22:33:13.703Z,1.47
2019-06-08T22:35:41.970Z,1.60
2019-06-08T22:38:10.197Z,1.67
2019-06-08T22:40:38.419Z,1.62
2019-06-08T22:43:08.079Z,1.87
2019-06-08T22:45:37.467Z,1.57
2019-06-08T22:48:08.283Z,1.70
2019-06-08T22:50:38.052Z,1.70
2019-06-08T22:53:07.981Z,1.40
2019-06-08T22:55:38.021Z,1.47
2019-06-08T22:58:07.681Z,1.40
2019-06-08T23:00:49.062Z,1.53
2019-06-08T23:03:08.653Z,1.17
2019-06-08T23:05:37.381Z,1.45
2019-06-08T23:08:07.029Z,1.85
2019-06-08T23:10:37.421Z,1.40
2019-06-08T23:13:07.838Z,1.40
2019-06-08T23:15:35.517Z,1.92
2019-06-08T23:18:04.605Z,1.57
2019-06-08T23:20:33.862Z,1.57
2019-06-08T23:23:03.051Z,1.32
2019-06-08T23:25:32.058Z,1.50
2019-06-08T23:28:00.343Z,1.40
2019-06-08T23:30:28.555Z,1.70
2019-06-08T23:33:00.646Z,1.80
2019-06-08T23:35:27.600Z,1.75
2019-06-08T23:37:56.818Z,2.00
2019-06-08T23:40:27.275Z,1.65
2019-06-08T23:42:55.237Z,1.65
2019-06-08T23:45:23.435Z,1.60
2019-06-08T23:47:51.672Z,1.87
2019-06-08T23:50:19.883Z,1.63
2019-06-08T23:52:48.086Z,1.82
2019-06-08T23:55:18.230Z,1.95
2019-06-08T23:57:46.271Z,1.98
